Dothan, West Virginia
Current Conditions -  °F | °C
As of 10:51 PM on Sunday 25 Jan 2015 (Local Time) from KBKW Reporting Station
Overcast Overcast  
Wind Chill: 38°   Ceiling: 5500
Heat Index: 38°   Visibility: 10mi
Dew Point: 34°   Wind: 3mph
Humidity: 86%   Direction: 80°E
Pressure: 29.68"   Gusts: NA
Location:  37.97°N, 81.22°W
Report Text: KBKW 260351Z AUTO 08003KT 10SM OVC055 03/01 A2968 RMK AO2 RAB0256E43 SLP065 P0000 T00330011
Loading
Personal Weather Stations






























Interactive Weather Map New forecast layout! Learn more

10-Day Weather Forecast

Advertisements
Track Severe Weather on mobile